createdAt,value
2017-10-03T00:01:48.283Z,89.62
2017-10-03T00:04:15.885Z,89.83
2017-10-03T00:06:43.564Z,89.83
2017-10-03T00:09:11.473Z,89.63
2017-10-03T00:11:39.393Z,88.41
2017-10-03T00:14:07.053Z,88.74
2017-10-03T00:16:34.648Z,88.93
2017-10-03T00:19:02.260Z,88.73
2017-10-03T00:21:29.887Z,88.78
2017-10-03T00:23:57.480Z,88.37
2017-10-03T00:26:25.066Z,88.61
2017-10-03T00:28:52.701Z,88.74
2017-10-03T00:31:20.275Z,88.37
2017-10-03T00:33:47.876Z,88.66
2017-10-03T00:36:15.495Z,88.93
2017-10-03T00:38:43.096Z,88.89
2017-10-03T00:41:10.679Z,88.94
2017-10-03T00:43:38.311Z,89.24
2017-10-03T00:46:05.943Z,89.42
2017-10-03T00:48:33.792Z,89.46
2017-10-03T00:51:01.750Z,89.77
2017-10-03T00:53:29.345Z,89.93
2017-10-03T00:55:57.308Z,90.34
2017-10-03T00:58:25.249Z,90.53
2017-10-03T01:00:52.827Z,90.54
2017-10-03T01:03:20.435Z,90.79
2017-10-03T01:05:48.056Z,90.55
2017-10-03T01:08:15.643Z,90.89
2017-10-03T01:10:43.471Z,91.16
2017-10-03T01:13:11.099Z,91.23
2017-10-03T01:15:38.993Z,91.51
2017-10-03T01:18:06.595Z,91.18
2017-10-03T01:20:34.232Z,91.46
2017-10-03T01:23:01.865Z,91.17
2017-10-03T01:25:29.460Z,91.20
2017-10-03T01:27:57.093Z,90.80
2017-10-03T01:30:24.681Z,91.30
2017-10-03T01:32:52.281Z,91.36
2017-10-03T01:35:20.192Z,91.61
2017-10-03T01:37:59.564Z,91.20
2017-10-03T01:40:27.204Z,91.51
2017-10-03T01:42:54.802Z,91.55
2017-10-03T01:45:22.390Z,91.47
2017-10-03T01:47:50.011Z,91.30
2017-10-03T01:50:17.615Z,91.31
2017-10-03T01:52:45.516Z,91.36
2017-10-03T01:55:13.132Z,91.40
2017-10-03T01:57:40.744Z,91.54
2017-10-03T02:00:08.337Z,91.55
2017-10-03T02:02:35.955Z,91.41
2017-10-03T02:05:03.555Z,91.31
2017-10-03T02:07:31.142Z,91.30
2017-10-03T02:09:58.772Z,91.48
2017-10-03T02:12:26.353Z,91.35
2017-10-03T02:14:53.938Z,91.21
2017-10-03T02:17:21.633Z,91.35
2017-10-03T02:19:49.230Z,90.92
2017-10-03T02:22:16.812Z,91.32
2017-10-03T02:24:44.431Z,91.25
2017-10-03T02:27:12.026Z,91.28
2017-10-03T02:29:39.619Z,91.05
2017-10-03T02:32:07.245Z,91.29
2017-10-03T02:34:34.832Z,91.36
2017-10-03T02:37:02.427Z,91.54
2017-10-03T02:39:30.048Z,91.52
2017-10-03T02:41:57.957Z,91.54
2017-10-03T02:44:25.541Z,91.53
2017-10-03T02:46:53.171Z,91.79
2017-10-03T02:49:20.783Z,91.45
2017-10-03T02:51:48.708Z,91.68
2017-10-03T02:54:16.576Z,91.69
2017-10-03T02:56:44.183Z,91.59
2017-10-03T02:59:11.760Z,91.64
2017-10-03T03:01:39.669Z,91.66
2017-10-03T03:04:07.260Z,91.61
2017-10-03T03:06:34.834Z,91.65
2017-10-03T03:09:02.456Z,91.37
2017-10-03T03:11:30.044Z,91.26
2017-10-03T03:13:57.666Z,91.27
2017-10-03T03:16:25.287Z,91.24
2017-10-03T03:18:52.870Z,91.57
2017-10-03T03:21:20.444Z,91.57
2017-10-03T03:23:48.084Z,91.63
2017-10-03T03:26:15.664Z,91.55
2017-10-03T03:28:43.258Z,91.58
2017-10-03T03:31:10.896Z,91.35
2017-10-03T03:33:38.781Z,91.23
2017-10-03T03:36:06.644Z,91.47
2017-10-03T03:38:34.260Z,91.72
2017-10-03T03:41:01.854Z,91.70
2017-10-03T03:43:29.435Z,91.82
2017-10-03T03:45:57.401Z,91.83
2017-10-03T03:48:24.985Z,91.64
2017-10-03T03:50:52.569Z,91.51
2017-10-03T03:53:20.185Z,91.57
2017-10-03T03:55:48.035Z,91.29
2017-10-03T03:58:15.624Z,91.50
2017-10-03T04:00:43.581Z,91.62
2017-10-03T04:03:11.180Z,91.37
2017-10-03T04:05:38.777Z,91.81
2017-10-03T04:08:06.672Z,91.91
2017-10-03T04:10:34.267Z,91.68
2017-10-03T04:13:02.098Z,91.84
2017-10-03T04:15:29.723Z,91.89
2017-10-03T04:17:57.304Z,91.83
2017-10-03T04:20:24.880Z,91.78
2017-10-03T04:22:52.508Z,91.67
2017-10-03T04:25:20.131Z,91.75
2017-10-03T04:27:47.729Z,91.97
2017-10-03T04:30:15.372Z,92.05
2017-10-03T04:32:42.957Z,91.89
2017-10-03T04:35:10.551Z,91.73
2017-10-03T04:37:38.174Z,91.63
2017-10-03T04:40:05.777Z,91.88
2017-10-03T04:42:33.364Z,91.99
2017-10-03T04:45:00.990Z,91.71
2017-10-03T04:47:28.998Z,91.62
2017-10-03T04:49:56.574Z,91.53
2017-10-03T04:52:24.213Z,91.50
2017-10-03T04:54:52.069Z,91.31
2017-10-03T04:57:19.661Z,91.29
2017-10-03T04:59:47.288Z,91.17
2017-10-03T05:02:14.890Z,91.09
2017-10-03T05:04:42.471Z,90.91
2017-10-03T05:07:10.387Z,90.83
2017-10-03T05:09:37.968Z,90.83
2017-10-03T05:12:05.548Z,90.75
2017-10-03T05:14:33.179Z,90.50
2017-10-03T05:17:00.760Z,90.47
2017-10-03T05:19:28.341Z,90.73
2017-10-03T05:21:55.967Z,90.73
2017-10-03T05:24:23.552Z,90.65
2017-10-03T05:26:51.146Z,90.46
2017-10-03T05:29:18.803Z,90.84
2017-10-03T05:31:46.381Z,90.78
2017-10-03T05:34:13.976Z,90.73
2017-10-03T05:36:41.606Z,90.76
2017-10-03T05:39:09.192Z,90.59
2017-10-03T05:41:36.771Z,90.63
2017-10-03T05:44:04.407Z,90.45
2017-10-03T05:46:31.983Z,90.69
2017-10-03T05:48:59.575Z,90.59
2017-10-03T05:51:27.208Z,90.45
2017-10-03T05:53:54.794Z,90.51
2017-10-03T05:56:22.375Z,90.63
2017-10-03T05:58:50.008Z,90.63
2017-10-03T06:01:17.592Z,90.18
2017-10-03T06:03:45.509Z,90.19
2017-10-03T06:06:13.478Z,90.15
2017-10-03T06:08:41.061Z,90.01
2017-10-03T06:11:08.639Z,90.00
2017-10-03T06:13:36.281Z,90.18
2017-10-03T06:16:03.962Z,89.86
2017-10-03T06:18:31.541Z,89.78
2017-10-03T06:20:59.181Z,90.19
2017-10-03T06:23:26.789Z,89.81
2017-10-03T06:25:54.408Z,89.90
2017-10-03T06:28:22.058Z,89.67
2017-10-03T06:30:49.647Z,89.76
2017-10-03T06:33:17.267Z,89.63
2017-10-03T06:35:45.048Z,89.44
2017-10-03T06:38:12.731Z,89.22
2017-10-03T06:40:40.364Z,89.66
2017-10-03T06:43:11.295Z,89.66
2017-10-03T06:45:38.976Z,89.58
2017-10-03T06:48:06.825Z,89.69
2017-10-03T06:50:34.495Z,89.65
2017-10-03T06:53:02.156Z,89.64
2017-10-03T06:55:29.765Z,89.73
2017-10-03T06:57:57.429Z,89.66
2017-10-03T07:00:25.026Z,89.58
2017-10-03T07:02:52.619Z,89.19
2017-10-03T07:05:20.236Z,88.90
2017-10-03T07:07:47.832Z,88.89
2017-10-03T07:10:15.693Z,88.26
2017-10-03T07:12:43.330Z,88.24
2017-10-03T07:15:10.916Z,88.37
2017-10-03T07:17:38.506Z,88.25
2017-10-03T07:20:06.143Z,88.35
2017-10-03T07:22:33.737Z,87.84
2017-10-03T07:25:01.368Z,87.96
2017-10-03T07:27:29.029Z,88.17
2017-10-03T07:29:56.620Z,88.03
2017-10-03T07:32:24.206Z,88.07
2017-10-03T07:34:52.117Z,88.33
2017-10-03T07:37:19.977Z,88.08
2017-10-03T07:39:47.571Z,88.28
2017-10-03T07:42:15.218Z,88.24
2017-10-03T07:44:43.176Z,87.64
2017-10-03T07:47:10.768Z,87.11
2017-10-03T07:49:38.400Z,87.30
2017-10-03T07:52:06.003Z,87.26
2017-10-03T07:54:33.630Z,87.38
2017-10-03T07:57:01.260Z,87.03
2017-10-03T07:59:28.858Z,87.85
2017-10-03T08:01:56.444Z,87.43
2017-10-03T08:04:24.194Z,87.59
2017-10-03T08:06:51.790Z,87.34
2017-10-03T08:09:19.429Z,86.96
2017-10-03T08:11:47.043Z,86.97
2017-10-03T08:14:14.928Z,86.55
2017-10-03T08:16:42.531Z,86.34
2017-10-03T08:19:10.568Z,85.22
2017-10-03T08:21:38.538Z,85.22
2017-10-03T08:24:06.134Z,84.44
2017-10-03T08:26:33.760Z,83.54
2017-10-03T08:29:01.359Z,82.35
2017-10-03T08:31:28.998Z,83.05
2017-10-03T08:33:56.620Z,84.05
2017-10-03T08:36:24.210Z,83.25
2017-10-03T08:38:52.178Z,83.12
2017-10-03T08:41:19.810Z,82.34
2017-10-03T08:43:47.649Z,82.38
2017-10-03T08:46:15.245Z,82.26
2017-10-03T08:48:42.859Z,82.31
2017-10-03T08:51:10.439Z,81.84
2017-10-03T08:53:38.040Z,82.74
2017-10-03T08:56:05.676Z,82.02
2017-10-03T08:58:33.281Z,81.84
2017-10-03T09:01:00.879Z,81.65
2017-10-03T09:03:28.522Z,82.51
2017-10-03T09:05:56.130Z,82.24
2017-10-03T09:08:23.708Z,81.00
2017-10-03T09:10:51.692Z,80.61
2017-10-03T09:13:19.273Z,79.56
2017-10-03T09:15:46.851Z,79.30
2017-10-03T09:18:14.482Z,79.38
2017-10-03T09:20:42.345Z,78.71
2017-10-03T09:23:09.972Z,79.26
2017-10-03T09:25:37.881Z,79.38
2017-10-03T09:28:05.486Z,78.50
2017-10-03T09:30:33.084Z,77.88
2017-10-03T09:33:00.749Z,77.80
2017-10-03T09:35:29.535Z,78.10
2017-10-03T09:37:57.287Z,77.88
2017-10-03T09:40:24.920Z,77.93
2017-10-03T09:42:52.552Z,77.80
2017-10-03T09:45:20.134Z,77.73
2017-10-03T09:47:48.057Z,77.74
2017-10-03T09:50:15.649Z,77.85
2017-10-03T09:52:43.288Z,77.82
2017-10-03T09:55:11.273Z,76.17
2017-10-03T09:57:38.877Z,76.14
2017-10-03T10:00:06.469Z,76.00
2017-10-03T10:02:34.116Z,76.12
2017-10-03T10:05:01.753Z,75.44
2017-10-03T10:07:29.372Z,75.49
2017-10-03T10:09:57.007Z,73.63
2017-10-03T10:12:24.610Z,74.99
2017-10-03T10:14:52.236Z,75.71
2017-10-03T10:17:19.851Z,76.62
2017-10-03T10:19:47.690Z,76.76
2017-10-03T10:22:15.268Z,77.69
2017-10-03T10:24:42.916Z,77.70
2017-10-03T10:27:10.575Z,75.40
2017-10-03T10:29:38.156Z,74.97
2017-10-03T10:32:05.808Z,73.70
2017-10-03T10:34:33.632Z,72.86
2017-10-03T10:37:01.245Z,72.95
2017-10-03T10:39:28.900Z,71.07
2017-10-03T10:41:56.511Z,71.30
2017-10-03T10:44:24.431Z,71.14
2017-10-03T10:46:52.064Z,69.31
2017-10-03T10:49:19.702Z,69.87
2017-10-03T10:51:47.287Z,72.86
2017-10-03T10:54:14.948Z,75.78
2017-10-03T10:56:42.596Z,76.43
2017-10-03T10:59:10.203Z,77.21
2017-10-03T11:01:37.844Z,76.92
2017-10-03T11:04:05.668Z,77.05
2017-10-03T11:06:33.305Z,76.47
2017-10-03T11:09:00.947Z,77.10
2017-10-03T11:11:28.569Z,76.56
2017-10-03T11:13:56.160Z,76.97
2017-10-03T11:16:23.825Z,74.29
2017-10-03T11:18:51.418Z,74.04
2017-10-03T11:21:19.003Z,71.81
2017-10-03T11:23:58.252Z,70.23
2017-10-03T11:26:25.870Z,70.99
2017-10-03T11:28:53.452Z,67.51
2017-10-03T11:31:21.073Z,68.08
2017-10-03T11:33:48.949Z,68.78
2017-10-03T11:36:16.530Z,70.29
2017-10-03T11:38:44.483Z,71.88
2017-10-03T11:41:13.049Z,73.46
2017-10-03T11:43:40.937Z,73.42
2017-10-03T11:46:08.569Z,71.83
2017-10-03T11:48:36.898Z,71.31
2017-10-03T11:51:04.846Z,68.85
2017-10-03T11:53:32.688Z,66.66
2017-10-03T11:56:00.326Z,65.38
2017-10-03T11:58:27.913Z,65.63
2017-10-03T12:00:55.540Z,65.83
2017-10-03T12:03:23.160Z,64.59
2017-10-03T12:05:50.735Z,62.54
2017-10-03T12:08:18.396Z,60.11
2017-10-03T12:10:46.052Z,55.08
2017-10-03T12:13:13.655Z,50.98
2017-10-03T12:15:41.289Z,53.40
2017-10-03T12:18:08.872Z,54.49
2017-10-03T12:20:36.471Z,56.99
2017-10-03T12:23:04.093Z,59.34
2017-10-03T12:25:31.688Z,61.48
2017-10-03T12:27:59.281Z,60.99
2017-10-03T12:30:26.915Z,63.02
2017-10-03T12:32:54.498Z,63.26
2017-10-03T12:35:22.127Z,62.72
2017-10-03T12:37:49.754Z,63.09
2017-10-03T12:40:17.344Z,62.91
2017-10-03T12:42:44.924Z,63.42
2017-10-03T12:45:12.550Z,64.52
2017-10-03T12:47:40.177Z,65.51
2017-10-03T12:50:07.801Z,66.35
2017-10-03T12:52:35.422Z,66.46
2017-10-03T12:55:03.064Z,67.08
2017-10-03T12:57:30.670Z,67.37
2017-10-03T12:59:58.389Z,67.91
2017-10-03T13:02:26.055Z,67.74
2017-10-03T13:04:54.908Z,68.04
2017-10-03T13:07:22.534Z,70.66
2017-10-03T13:09:50.116Z,70.78
2017-10-03T13:12:17.711Z,70.90
2017-10-03T13:14:45.335Z,71.41
2017-10-03T13:17:12.927Z,69.44
2017-10-03T13:19:40.523Z,67.87
2017-10-03T13:22:08.156Z,68.47
2017-10-03T13:24:35.750Z,68.65
2017-10-03T13:27:03.352Z,67.86
2017-10-03T13:29:30.997Z,66.83
2017-10-03T13:31:58.595Z,66.20
2017-10-03T13:34:26.210Z,66.30
2017-10-03T13:36:53.846Z,66.64
2017-10-03T13:39:21.442Z,67.17
2017-10-03T13:41:49.026Z,67.67
2017-10-03T13:44:16.651Z,68.83
2017-10-03T13:46:44.258Z,68.86
2017-10-03T13:49:12.163Z,68.79
2017-10-03T13:51:39.787Z,70.15
2017-10-03T13:54:07.694Z,70.76
2017-10-03T13:56:35.289Z,71.96
2017-10-03T13:59:02.913Z,71.49
2017-10-03T14:01:30.526Z,71.85
2017-10-03T14:03:58.107Z,72.40
2017-10-03T14:06:26.108Z,72.61
2017-10-03T14:08:53.710Z,72.98
2017-10-03T14:11:21.302Z,73.11
2017-10-03T14:13:48.944Z,72.60
2017-10-03T14:16:16.870Z,71.73
2017-10-03T14:18:44.441Z,71.97
2017-10-03T14:21:12.070Z,71.64
2017-10-03T14:23:39.649Z,70.43
2017-10-03T14:26:07.220Z,70.44
2017-10-03T14:28:35.289Z,70.39
2017-10-03T14:31:02.866Z,70.91
2017-10-03T14:33:30.498Z,70.96
2017-10-03T14:35:58.134Z,71.92
2017-10-03T14:38:25.718Z,73.19
2017-10-03T14:40:53.324Z,73.68
2017-10-03T14:43:20.952Z,74.49
2017-10-03T14:45:48.545Z,75.35
2017-10-03T14:48:16.486Z,75.85
2017-10-03T14:50:44.112Z,76.05
2017-10-03T14:53:11.704Z,73.78
2017-10-03T14:55:39.292Z,73.23
2017-10-03T14:58:07.237Z,73.02
2017-10-03T15:00:34.815Z,72.43
2017-10-03T15:03:02.409Z,72.05
2017-10-03T15:05:30.027Z,70.36
2017-10-03T15:07:58.827Z,70.63
2017-10-03T15:10:26.447Z,69.11
2017-10-03T15:12:54.442Z,68.05
2017-10-03T15:15:22.027Z,66.63
2017-10-03T15:17:49.617Z,66.06
2017-10-03T15:20:17.276Z,66.73
2017-10-03T15:22:44.887Z,67.11
2017-10-03T15:25:12.482Z,67.86
2017-10-03T15:27:40.105Z,66.79
2017-10-03T15:30:07.683Z,67.16
2017-10-03T15:32:35.548Z,67.71
2017-10-03T15:35:03.517Z,67.72
2017-10-03T15:37:31.100Z,67.49
2017-10-03T15:39:58.697Z,67.31
2017-10-03T15:42:26.359Z,67.53
2017-10-03T15:44:53.950Z,67.25
2017-10-03T15:47:21.774Z,67.56
2017-10-03T15:49:49.400Z,67.95
2017-10-03T15:52:16.975Z,67.39
2017-10-03T15:54:44.563Z,68.16
2017-10-03T15:57:12.207Z,68.72
2017-10-03T15:59:39.803Z,71.98
2017-10-03T16:02:07.384Z,71.81
2017-10-03T16:04:35.280Z,70.89
2017-10-03T16:07:02.868Z,70.76
2017-10-03T16:09:30.477Z,71.03
2017-10-03T16:11:58.120Z,72.26
2017-10-03T16:14:25.722Z,73.26
2017-10-03T16:16:53.309Z,72.69
2017-10-03T16:19:20.936Z,74.25
2017-10-03T16:21:48.516Z,73.52
2017-10-03T16:24:16.475Z,74.94
2017-10-03T16:26:44.092Z,75.38
2017-10-03T16:29:11.673Z,75.63
2017-10-03T16:31:39.502Z,75.09
2017-10-03T16:34:07.132Z,76.07
2017-10-03T16:36:34.724Z,75.91
2017-10-03T16:39:02.317Z,76.38
2017-10-03T16:41:29.944Z,75.11
2017-10-03T16:43:57.874Z,75.78
2017-10-03T16:46:25.501Z,76.66
2017-10-03T16:48:53.151Z,76.85
2017-10-03T16:51:20.727Z,76.71
2017-10-03T16:53:48.316Z,76.80
2017-10-03T16:56:15.947Z,76.85
2017-10-03T16:58:43.551Z,76.89
2017-10-03T17:01:11.412Z,77.18
2017-10-03T17:03:39.041Z,76.29
2017-10-03T17:06:06.661Z,76.21
2017-10-03T17:08:34.260Z,76.29
2017-10-03T17:11:01.903Z,77.23
2017-10-03T17:13:29.828Z,77.95
2017-10-03T17:15:57.411Z,78.56
2017-10-03T17:18:25.063Z,79.28
2017-10-03T17:20:52.668Z,80.30
2017-10-03T17:23:20.240Z,80.31
2017-10-03T17:25:47.859Z,80.54
2017-10-03T17:28:15.454Z,80.45
2017-10-03T17:30:43.032Z,80.52
2017-10-03T17:33:10.694Z,81.50
2017-10-03T17:35:38.290Z,81.09
2017-10-03T17:38:05.868Z,80.56
2017-10-03T17:40:33.489Z,80.63
2017-10-03T17:43:01.077Z,80.21
2017-10-03T17:45:28.664Z,79.80
2017-10-03T17:47:56.289Z,79.81
2017-10-03T17:50:23.882Z,79.96
2017-10-03T17:52:51.468Z,79.36
2017-10-03T17:55:19.116Z,79.66
2017-10-03T17:57:46.721Z,79.50
2017-10-03T18:00:14.298Z,79.48
2017-10-03T18:02:42.179Z,79.90
2017-10-03T18:05:09.843Z,79.69
2017-10-03T18:07:37.457Z,79.79
2017-10-03T18:10:05.476Z,80.11
2017-10-03T18:12:33.083Z,80.28
2017-10-03T18:15:00.711Z,80.02
2017-10-03T18:17:28.344Z,79.76
2017-10-03T18:19:55.928Z,79.16
2017-10-03T18:22:23.784Z,78.24
2017-10-03T18:24:51.752Z,78.36
2017-10-03T18:27:19.344Z,78.24
2017-10-03T18:29:46.946Z,77.92
2017-10-03T18:32:14.586Z,77.65
2017-10-03T18:34:42.176Z,77.47
2017-10-03T18:37:09.827Z,77.25
2017-10-03T18:39:37.832Z,76.80
2017-10-03T18:42:05.423Z,76.83
2017-10-03T18:44:33.006Z,77.40
2017-10-03T18:47:00.639Z,76.63
2017-10-03T18:49:28.231Z,77.10
2017-10-03T18:51:55.823Z,76.33
2017-10-03T18:54:23.450Z,76.55
2017-10-03T18:56:51.049Z,76.32
2017-10-03T18:59:18.633Z,76.26
2017-10-03T19:01:46.259Z,76.44
2017-10-03T19:04:14.157Z,76.50
2017-10-03T19:06:41.740Z,76.44
2017-10-03T19:09:09.375Z,76.29
2017-10-03T19:11:36.952Z,76.53
2017-10-03T19:14:04.530Z,76.46
2017-10-03T19:16:32.146Z,76.62
2017-10-03T19:18:59.740Z,76.53
2017-10-03T19:21:27.600Z,76.98
2017-10-03T19:23:55.217Z,77.12
2017-10-03T19:26:22.820Z,77.96
2017-10-03T19:28:50.400Z,78.09
2017-10-03T19:31:18.029Z,78.37
2017-10-03T19:33:45.615Z,77.99
2017-10-03T19:36:13.183Z,78.34
2017-10-03T19:38:40.807Z,78.61
2017-10-03T19:41:08.631Z,79.37
2017-10-03T19:43:36.268Z,79.38
2017-10-03T19:46:03.891Z,79.36
2017-10-03T19:48:31.496Z,79.82
2017-10-03T19:50:59.262Z,80.39
2017-10-03T19:53:26.880Z,80.54
2017-10-03T19:55:54.587Z,80.60
2017-10-03T19:58:22.171Z,80.57
2017-10-03T20:00:49.868Z,80.57
2017-10-03T20:03:17.466Z,80.42
2017-10-03T20:05:45.061Z,80.65
2017-10-03T20:08:12.709Z,80.82
2017-10-03T20:10:40.323Z,80.94
2017-10-03T20:13:07.912Z,80.97
2017-10-03T20:15:35.545Z,80.78
2017-10-03T20:18:03.134Z,80.71
2017-10-03T20:20:30.734Z,81.02
2017-10-03T20:22:58.343Z,80.78
2017-10-03T20:25:25.934Z,81.09
2017-10-03T20:27:53.885Z,81.06
2017-10-03T20:30:21.483Z,80.47
2017-10-03T20:32:49.417Z,80.67
2017-10-03T20:35:17.047Z,80.40
2017-10-03T20:37:44.623Z,80.51
2017-10-03T20:40:12.208Z,80.85
2017-10-03T20:42:39.829Z,80.72
2017-10-03T20:45:07.728Z,80.74
2017-10-03T20:47:35.316Z,80.75
2017-10-03T20:50:02.941Z,80.97
2017-10-03T20:52:30.557Z,80.97
2017-10-03T20:54:58.132Z,81.13
2017-10-03T20:57:25.755Z,81.08
2017-10-03T20:59:53.356Z,81.18
2017-10-03T21:02:20.932Z,81.13
2017-10-03T21:04:48.576Z,81.26
2017-10-03T21:07:16.500Z,81.31
2017-10-03T21:09:44.081Z,81.46
2017-10-03T21:12:11.705Z,81.44
2017-10-03T21:14:39.381Z,81.27
2017-10-03T21:17:06.967Z,81.13
2017-10-03T21:19:34.589Z,81.10
2017-10-03T21:22:02.468Z,81.43
2017-10-03T21:24:30.070Z,81.50
2017-10-03T21:26:58.008Z,81.45
2017-10-03T21:29:25.584Z,81.54
2017-10-03T21:31:53.179Z,81.90
2017-10-03T21:34:20.797Z,81.93
2017-10-03T21:36:48.381Z,81.98
2017-10-03T21:39:15.972Z,81.99
2017-10-03T21:41:55.394Z,82.23
2017-10-03T21:44:23.324Z,82.39
2017-10-03T21:46:50.936Z,82.05
2017-10-03T21:49:18.578Z,82.07
2017-10-03T21:51:46.404Z,82.06
2017-10-03T21:54:13.989Z,82.31
2017-10-03T21:56:41.607Z,82.10
2017-10-03T21:59:09.210Z,82.24
2017-10-03T22:01:36.792Z,82.40
2017-10-03T22:04:04.418Z,82.51
2017-10-03T22:06:32.008Z,82.33
2017-10-03T22:08:59.612Z,82.41
2017-10-03T22:11:27.311Z,82.40
2017-10-03T22:13:55.302Z,82.42
2017-10-03T22:16:22.943Z,82.36
2017-10-03T22:18:50.578Z,82.45
2017-10-03T22:21:18.161Z,82.40
2017-10-03T22:23:45.938Z,82.69
2017-10-03T22:26:13.937Z,83.02
2017-10-03T22:28:41.539Z,82.85
2017-10-03T22:31:09.135Z,82.67
2017-10-03T22:33:36.816Z,82.82
2017-10-03T22:36:04.767Z,82.61
2017-10-03T22:38:33.445Z,83.04
2017-10-03T22:41:01.076Z,83.21
2017-10-03T22:43:28.669Z,83.13
2017-10-03T22:45:56.249Z,82.84
2017-10-03T22:48:23.884Z,82.65
2017-10-03T22:50:51.475Z,82.47
2017-10-03T22:53:19.056Z,82.61
2017-10-03T22:55:46.715Z,82.54
2017-10-03T22:58:14.309Z,82.49
2017-10-03T23:00:41.896Z,82.22
2017-10-03T23:03:09.528Z,82.72
2017-10-03T23:05:37.440Z,82.84
2017-10-03T23:08:05.040Z,83.05
2017-10-03T23:10:32.701Z,82.65
2017-10-03T23:13:00.279Z,82.63
2017-10-03T23:15:27.877Z,82.48
2017-10-03T23:17:56.661Z,82.55
2017-10-03T23:20:24.255Z,82.23
2017-10-03T23:22:51.845Z,82.15
2017-10-03T23:25:19.756Z,82.08
2017-10-03T23:27:47.624Z,81.83
2017-10-03T23:30:15.488Z,81.92
2017-10-03T23:32:43.144Z,81.75
2017-10-03T23:35:10.735Z,81.59
2017-10-03T23:37:38.324Z,81.33
2017-10-03T23:40:05.964Z,81.48
2017-10-03T23:42:33.549Z,81.56
2017-10-03T23:45:01.132Z,81.34
2017-10-03T23:47:28.767Z,81.44
2017-10-03T23:49:56.692Z,81.31
2017-10-03T23:52:24.564Z,81.09
2017-10-03T23:54:52.207Z,81.25
2017-10-03T23:57:20.051Z,81.15
2017-10-03T23:59:47.867Z,81.33
